Time;durP1;ratioP1;P1;durP2;ratioP2;P2;SDS_P1;SDS_P2;PMS_P1;PMS_P2;Temp;Humidity;BMP_temperature;BMP_pressure;BME280_temperature;BME280_humidity;BME280_pressure;Samples;Min_cycle;Max_cycle;Signal;HPM_P1;HPM_P2
2022/05/04 00:01:26;;;;;;;7.93;3.77;;;;;;;;;;6176950;28;20622;-66
2022/05/04 00:04:48;;;;;;;10.00;3.67;;;;;;;;;;6178172;28;20237;-67
2022/05/04 00:08:08;;;;;;;11.90;3.83;;;;;;;;;;6178477;28;20241;-66
2022/05/04 00:11:29;;;;;;;11.03;4.23;;;;;;;;;;6177210;28;20237;-67
2022/05/04 00:14:49;;;;;;;9.37;3.80;;;;;;;;;;6167944;28;20511;-66
2022/05/04 00:18:10;;;;;;;7.40;3.67;;;;;;;;;;6179425;28;20816;-65
2022/05/04 00:21:32;;;;;;;11.40;4.53;;;;;;;;;;6180074;28;20241;-67
2022/05/04 00:24:52;;;;;;;7.80;3.67;;;;;;;;;;6183639;28;20246;-65
2022/05/04 00:46:09;;;;;;;7.43;4.13;;;;;;;;;;6178233;28;20229;-67
2022/05/04 00:49:31;;;;;;;8.90;5.40;;;;;;;;;;6168505;28;20230;-67
2022/05/04 00:52:51;;;;;;;10.20;4.83;;;;;;;;;;6177993;28;20226;-66
2022/05/04 00:56:12;;;;;;;7.70;4.83;;;;;;;;;;6185218;28;20234;-67
2022/05/04 00:59:33;;;;;;;13.10;5.30;;;;;;;;;;6179222;28;20238;-67
2022/05/04 01:02:54;;;;;;;22.67;6.20;;;;;;;;;;6183846;28;20237;-67
2022/05/04 01:06:16;;;;;;;11.40;4.90;;;;;;;;;;6182551;28;20246;-68
2022/05/04 01:09:37;;;;;;;10.80;4.60;;;;;;;;;;6182513;28;20317;-67
2022/05/04 01:12:58;;;;;;;6.67;3.70;;;;;;;;;;6183858;28;20238;-66
2022/05/04 01:16:18;;;;;;;5.87;3.93;;;;;;;;;;6182091;28;20501;-67
2022/05/04 01:19:39;;;;;;;9.43;4.47;;;;;;;;;;6181305;28;20233;-67
2022/05/04 01:23:00;;;;;;;7.97;4.17;;;;;;;;;;6185927;28;20226;-68
2022/05/04 01:26:21;;;;;;;8.73;4.87;;;;;;;;;;6187472;28;20233;-67
2022/05/04 01:29:41;;;;;;;11.10;4.00;;;;;;;;;;6183440;28;20636;-67
2022/05/04 01:33:02;;;;;;;12.73;4.40;;;;;;;;;;6183426;28;20817;-66
2022/05/04 01:36:23;;;;;;;11.47;4.97;;;;;;;;;;6184898;28;20233;-67
2022/05/04 01:39:44;;;;;;;11.10;4.53;;;;;;;;;;6185859;28;20611;-66
2022/05/04 01:43:05;;;;;;;9.23;4.83;;;;;;;;;;6182622;28;20591;-67
2022/05/04 01:46:26;;;;;;;11.73;4.27;;;;;;;;;;6178863;28;20250;-66
2022/05/04 01:49:46;;;;;;;11.33;4.70;;;;;;;;;;6177523;28;20238;-68
2022/05/04 01:53:08;;;;;;;12.40;4.90;;;;;;;;;;6183442;28;20615;-66
2022/05/04 01:56:30;;;;;;;11.97;5.93;;;;;;;;;;6151601;28;20230;-67
2022/05/04 01:59:50;;;;;;;12.30;4.97;;;;;;;;;;6175634;28;20230;-66
2022/05/04 02:03:11;;;;;;;9.50;4.63;;;;;;;;;;6178863;28;20796;-67
2022/05/04 02:06:32;;;;;;;8.10;4.10;;;;;;;;;;6179129;28;20627;-67
2022/05/04 02:09:53;;;;;;;8.67;4.23;;;;;;;;;;6177244;28;20222;-67
2022/05/04 02:13:15;;;;;;;8.23;4.63;;;;;;;;;;6175712;28;20266;-67
2022/05/04 02:16:35;;;;;;;8.97;4.03;;;;;;;;;;6175880;28;20238;-67
2022/05/04 02:19:56;;;;;;;8.00;4.50;;;;;;;;;;6175688;28;20229;-67
2022/05/04 02:23:16;;;;;;;9.77;4.40;;;;;;;;;;6179347;28;20234;-66
2022/05/04 02:26:37;;;;;;;9.53;4.47;;;;;;;;;;6179808;28;20253;-66
2022/05/04 02:29:59;;;;;;;9.30;5.03;;;;;;;;;;6177183;28;20226;-66
2022/05/04 02:33:19;;;;;;;9.30;4.60;;;;;;;;;;6181488;28;20602;-66
2022/05/04 02:40:17;;;;;;;8.77;3.87;;;;;;;;;;6177570;28;20596;-67
2022/05/04 02:43:38;;;;;;;5.37;3.40;;;;;;;;;;6181967;28;20230;-67
2022/05/04 02:47:00;;;;;;;10.70;4.57;;;;;;;;;;6177039;28;20226;-65
2022/05/04 02:50:20;;;;;;;10.87;4.57;;;;;;;;;;6178975;28;20234;-66
2022/05/04 02:53:41;;;;;;;10.73;4.77;;;;;;;;;;6179374;28;20239;-66
2022/05/04 02:57:02;;;;;;;10.97;3.90;;;;;;;;;;6183816;28;20261;-67
2022/05/04 03:00:22;;;;;;;15.03;6.40;;;;;;;;;;6176601;28;20229;-67
2022/05/04 03:03:44;;;;;;;11.43;5.03;;;;;;;;;;6178766;28;20230;-66
2022/05/04 03:07:05;;;;;;;15.97;12.30;;;;;;;;;;6181014;28;20599;-66
2022/05/04 03:10:25;;;;;;;9.43;7.27;;;;;;;;;;6183119;28;20229;-67
2022/05/04 03:13:47;;;;;;;8.23;5.10;;;;;;;;;;6183044;28;20238;-67
2022/05/04 03:17:08;;;;;;;8.10;4.73;;;;;;;;;;6179246;28;20226;-67
2022/05/04 03:20:30;;;;;;;4.90;3.80;;;;;;;;;;6179441;28;20233;-67
2022/05/04 03:23:50;;;;;;;9.70;5.07;;;;;;;;;;6180533;28;20230;-67
2022/05/04 03:27:11;;;;;;;12.43;4.77;;;;;;;;;;6181936;28;20226;-67
2022/05/04 03:30:31;;;;;;;10.13;4.30;;;;;;;;;;6180700;28;20234;-67
2022/05/04 03:33:52;;;;;;;8.03;4.07;;;;;;;;;;6181540;28;20242;-65
2022/05/04 03:37:14;;;;;;;12.67;5.90;;;;;;;;;;6180585;28;20226;-68
2022/05/04 03:40:34;;;;;;;12.50;5.03;;;;;;;;;;6180482;28;20288;-67
2022/05/04 03:43:54;;;;;;;9.43;4.73;;;;;;;;;;6177923;28;20511;-68
2022/05/04 03:47:15;;;;;;;8.77;4.90;;;;;;;;;;6175645;28;20230;-65
2022/05/04 03:50:35;;;;;;;12.43;5.80;;;;;;;;;;6176050;28;20221;-67
2022/05/04 03:53:57;;;;;;;8.27;4.30;;;;;;;;;;6182026;28;20238;-67
2022/05/04 03:57:18;;;;;;;9.77;3.93;;;;;;;;;;6173765;28;20241;-66
2022/05/04 04:00:38;;;;;;;13.40;5.60;;;;;;;;;;6173676;28;20233;-67
2022/05/04 04:03:59;;;;;;;13.47;4.00;;;;;;;;;;6177050;28;20233;-67
2022/05/04 04:07:19;;;;;;;9.27;5.13;;;;;;;;;;6183105;28;20233;-67
2022/05/04 04:10:41;;;;;;;9.50;5.47;;;;;;;;;;6175295;28;20237;-67
2022/05/04 04:14:01;;;;;;;7.47;4.60;;;;;;;;;;6181495;28;20964;-66
2022/05/04 04:17:22;;;;;;;12.23;4.60;;;;;;;;;;6180733;28;20234;-67
2022/05/04 04:24:21;;;;;;;10.40;5.47;;;;;;;;;;6171832;28;20245;-68
2022/05/04 04:27:43;;;;;;;11.27;5.23;;;;;;;;;;6181845;28;20229;-67
2022/05/04 04:31:03;;;;;;;6.17;4.80;;;;;;;;;;6178528;28;20325;-66
2022/05/04 04:34:24;;;;;;;15.07;5.43;;;;;;;;;;6177125;28;20233;-67
2022/05/04 04:37:45;;;;;;;13.13;4.20;;;;;;;;;;6181605;28;20222;-67
2022/05/04 04:41:05;;;;;;;6.57;4.20;;;;;;;;;;6181862;28;20554;-67
2022/05/04 04:44:27;;;;;;;8.70;5.03;;;;;;;;;;6184165;28;21121;-67
2022/05/04 04:47:48;;;;;;;10.37;5.20;;;;;;;;;;6180169;28;20995;-65
2022/05/04 04:51:08;;;;;;;11.13;5.00;;;;;;;;;;6181490;28;20611;-67
2022/05/04 04:54:29;;;;;;;16.57;6.07;;;;;;;;;;6179519;28;20328;-68
2022/05/04 04:57:49;;;;;;;10.83;5.43;;;;;;;;;;6178807;28;20245;-67
2022/05/04 05:01:11;;;;;;;7.40;4.47;;;;;;;;;;6176933;28;20238;-67
2022/05/04 05:04:31;;;;;;;9.30;5.90;;;;;;;;;;6172034;28;20360;-66
2022/05/04 05:07:52;;;;;;;8.17;5.53;;;;;;;;;;6173029;28;20253;-67
2022/05/04 05:11:12;;;;;;;12.13;6.30;;;;;;;;;;6178092;28;20242;-64
2022/05/04 05:18:11;;;;;;;10.03;6.17;;;;;;;;;;6186228;28;20237;-68
2022/05/04 05:21:32;;;;;;;11.17;5.20;;;;;;;;;;6185778;28;20222;-68
2022/05/04 05:24:53;;;;;;;11.60;6.57;;;;;;;;;;6184055;28;20321;-69
2022/05/04 05:28:14;;;;;;;5.60;5.03;;;;;;;;;;6184239;28;20226;-67
2022/05/04 05:31:34;;;;;;;7.23;4.40;;;;;;;;;;6183699;28;20265;-68
2022/05/04 05:34:56;;;;;;;10.33;3.97;;;;;;;;;;6183169;28;20242;-68
2022/05/04 05:38:17;;;;;;;5.67;3.73;;;;;;;;;;6183527;28;20313;-69
2022/05/04 05:41:39;;;;;;;10.03;3.93;;;;;;;;;;6186257;28;21128;-68
2022/05/04 05:45:00;;;;;;;8.37;4.47;;;;;;;;;;6182379;28;20586;-68
2022/05/04 05:48:20;;;;;;;6.67;3.37;;;;;;;;;;6182267;28;21248;-69
2022/05/04 05:51:42;;;;;;;6.47;3.10;;;;;;;;;;6178882;28;20329;-68
2022/05/04 05:55:03;;;;;;;9.00;4.00;;;;;;;;;;6182114;28;20234;-68
2022/05/04 05:58:24;;;;;;;11.73;3.77;;;;;;;;;;6182273;28;20623;-68
2022/05/04 06:01:44;;;;;;;5.37;2.90;;;;;;;;;;6187096;28;20253;-68
2022/05/04 06:08:37;;;;;;;5.80;2.23;;;;;;;;;;6154274;23;20226;-69
2022/05/04 06:11:57;;;;;;;8.37;3.33;;;;;;;;;;6161911;28;20271;-68
2022/05/04 06:15:18;;;;;;;4.33;2.13;;;;;;;;;;6146472;28;20238;-67
2022/05/04 06:18:38;;;;;;;4.00;2.33;;;;;;;;;;6163632;28;20234;-68
2022/05/04 06:21:59;;;;;;;6.90;2.63;;;;;;;;;;6154079;28;20874;-69
2022/05/04 06:25:21;;;;;;;5.73;2.23;;;;;;;;;;6163144;28;20242;-69
2022/05/04 06:28:42;;;;;;;6.13;2.43;;;;;;;;;;6161962;28;20231;-69
2022/05/04 06:35:40;;;;;;;8.57;2.70;;;;;;;;;;6164529;28;20230;-68
2022/05/04 06:39:01;;;;;;;9.83;3.00;;;;;;;;;;6161035;28;20223;-68
2022/05/04 06:42:23;;;;;;;6.87;2.00;;;;;;;;;;6149624;28;20234;-69
2022/05/04 06:45:43;;;;;;;5.73;2.07;;;;;;;;;;6158186;28;20227;-68
2022/05/04 06:49:04;;;;;;;8.97;3.27;;;;;;;;;;6160854;28;20218;-69
2022/05/04 06:52:25;;;;;;;7.17;3.30;;;;;;;;;;6165949;28;20624;-68
2022/05/04 06:55:45;;;;;;;4.47;1.97;;;;;;;;;;6161112;28;20230;-68
2022/05/04 06:59:07;;;;;;;7.27;2.27;;;;;;;;;;6163616;28;20317;-68
2022/05/04 07:02:28;;;;;;;4.77;2.63;;;;;;;;;;6159419;28;20235;-68
2022/05/04 07:05:49;;;;;;;4.53;2.40;;;;;;;;;;6160179;28;20531;-69
2022/05/04 07:09:09;;;;;;;4.17;2.33;;;;;;;;;;6163637;28;20234;-68
2022/05/04 07:12:30;;;;;;;3.67;1.90;;;;;;;;;;6160074;28;20487;-68
2022/05/04 07:15:53;;;;;;;11.50;2.80;;;;;;;;;;6164492;28;20258;-70
2022/05/04 07:19:13;;;;;;;7.33;2.57;;;;;;;;;;6159371;28;20596;-69
2022/05/04 07:22:34;;;;;;;4.70;1.97;;;;;;;;;;6162328;28;20223;-68
2022/05/04 07:25:54;;;;;;;8.87;2.83;;;;;;;;;;6161987;28;20230;-68
2022/05/04 07:29:15;;;;;;;8.80;2.70;;;;;;;;;;6152869;28;20234;-68
2022/05/04 07:32:37;;;;;;;6.70;2.10;;;;;;;;;;6164298;28;20234;-68
2022/05/04 07:35:58;;;;;;;3.87;1.97;;;;;;;;;;6162220;28;20230;-68
2022/05/04 07:42:53;;;;;;;8.90;4.17;;;;;;;;;;6160676;28;20329;-69
2022/05/04 07:46:13;;;;;;;6.17;2.80;;;;;;;;;;6164559;28;20223;-67
2022/05/04 07:49:35;;;;;;;7.53;3.10;;;;;;;;;;6163988;28;20346;-67
2022/05/04 07:52:56;;;;;;;7.67;3.47;;;;;;;;;;6162229;28;20313;-69
2022/05/04 07:56:16;;;;;;;9.37;2.87;;;;;;;;;;6163139;28;20238;-69
2022/05/04 07:59:37;;;;;;;5.57;2.90;;;;;;;;;;6161208;28;20226;-67
2022/05/04 08:06:36;;;;;;;11.53;2.60;;;;;;;;;;6158411;28;20317;-68
2022/05/04 08:09:57;;;;;;;8.47;3.20;;;;;;;;;;6164158;28;20235;-68
2022/05/04 08:13:19;;;;;;;5.63;2.43;;;;;;;;;;6163273;28;23460;-69
2022/05/04 08:16:40;;;;;;;5.40;2.97;;;;;;;;;;6161888;28;21017;-69
2022/05/04 08:20:01;;;;;;;8.97;2.53;;;;;;;;;;6161404;28;20230;-68
2022/05/04 08:23:23;;;;;;;7.20;3.53;;;;;;;;;;6161965;28;20242;-69
2022/05/04 08:26:44;;;;;;;5.80;2.30;;;;;;;;;;6160750;28;20580;-69
2022/05/04 08:30:06;;;;;;;7.07;2.67;;;;;;;;;;6160531;28;20238;-68
2022/05/04 08:33:28;;;;;;;5.20;2.30;;;;;;;;;;6157935;28;20297;-69
2022/05/04 08:36:49;;;;;;;4.90;2.30;;;;;;;;;;6157657;28;20238;-68
2022/05/04 08:40:12;;;;;;;7.13;3.03;;;;;;;;;;6157479;28;20230;-69
2022/05/04 08:43:33;;;;;;;3.73;1.60;;;;;;;;;;6158588;28;20230;-69
2022/05/04 08:46:56;;;;;;;6.50;2.73;;;;;;;;;;6163848;28;20238;-68
2022/05/04 08:50:17;;;;;;;13.40;3.23;;;;;;;;;;6160549;28;20534;-68
2022/05/04 08:53:39;;;;;;;6.07;2.23;;;;;;;;;;6161955;28;20230;-68
2022/05/04 08:57:01;;;;;;;4.20;2.53;;;;;;;;;;6160975;28;20249;-69
2022/05/04 09:00:21;;;;;;;5.70;2.63;;;;;;;;;;6156284;28;20235;-68
2022/05/04 09:03:42;;;;;;;10.00;3.03;;;;;;;;;;6160831;28;20759;-69
2022/05/04 09:07:03;;;;;;;7.80;2.90;;;;;;;;;;6161978;28;20580;-69
2022/05/04 09:10:24;;;;;;;3.83;2.13;;;;;;;;;;6159607;28;20273;-71
2022/05/04 09:13:48;;;;;;;4.43;2.27;;;;;;;;;;6158536;28;20227;-68
2022/05/04 09:17:09;;;;;;;5.57;2.73;;;;;;;;;;6161840;28;20226;-69
2022/05/04 09:20:52;;;;;;;7.37;2.70;;;;;;;;;;6146923;28;20718;-69
2022/05/04 09:24:14;;;;;;;5.93;2.50;;;;;;;;;;6166943;28;20238;-68
2022/05/04 09:27:39;;;;;;;9.30;3.00;;;;;;;;;;6154798;28;20235;-67
2022/05/04 09:31:06;;;;;;;4.23;2.17;;;;;;;;;;6161752;28;20230;-70
2022/05/04 09:34:34;;;;;;;5.23;2.33;;;;;;;;;;6163455;28;20238;-69
2022/05/04 09:45:12;;;;;;;6.97;3.23;;;;;;;;;;6165680;28;20262;-69
2022/05/04 09:48:34;;;;;;;3.50;2.57;;;;;;;;;;6155518;28;20234;-69
2022/05/04 09:51:56;;;;;;;4.97;2.37;;;;;;;;;;6166453;28;20329;-70
2022/05/04 09:55:22;;;;;;;7.90;3.43;;;;;;;;;;6164371;28;20222;-69
2022/05/04 09:58:43;;;;;;;5.13;3.30;;;;;;;;;;6163368;28;20234;-68
2022/05/04 10:02:07;;;;;;;4.63;2.63;;;;;;;;;;6165387;28;20230;-69
2022/05/04 10:05:29;;;;;;;5.13;2.53;;;;;;;;;;6166290;28;20234;-69
2022/05/04 10:08:50;;;;;;;6.87;3.60;;;;;;;;;;6158177;28;20330;-70
2022/05/04 10:12:11;;;;;;;5.93;3.23;;;;;;;;;;6161066;28;20222;-68
2022/05/04 10:15:34;;;;;;;8.03;2.37;;;;;;;;;;6151726;28;20238;-68
2022/05/04 10:18:55;;;;;;;6.77;2.57;;;;;;;;;;6166657;28;20631;-69
2022/05/04 10:22:21;;;;;;;8.43;3.27;;;;;;;;;;6165129;28;20234;-69
2022/05/04 10:25:43;;;;;;;4.80;2.73;;;;;;;;;;6165163;28;20592;-70
2022/05/04 10:32:57;;;;;;;4.20;2.30;;;;;;;;;;6157035;28;20223;-70
2022/05/04 10:36:18;;;;;;;8.60;3.97;;;;;;;;;;6163031;28;20230;-69
2022/05/04 10:39:40;;;;;;;6.40;3.73;;;;;;;;;;6165757;28;20227;-69
2022/05/04 10:43:02;;;;;;;8.90;2.90;;;;;;;;;;6154002;28;20231;-69
2022/05/04 10:46:24;;;;;;;7.07;3.33;;;;;;;;;;6159842;28;20238;-69
2022/05/04 10:49:44;;;;;;;5.97;3.20;;;;;;;;;;6155911;28;20219;-70
2022/05/04 10:53:05;;;;;;;8.87;3.20;;;;;;;;;;6158537;28;20227;-68
2022/05/04 10:56:28;;;;;;;4.67;3.17;;;;;;;;;;6163240;28;20234;-69
2022/05/04 11:00:01;;;;;;;6.87;2.93;;;;;;;;;;6163600;28;20227;-69
2022/05/04 11:03:23;;;;;;;4.47;3.10;;;;;;;;;;6158392;28;20230;-68
2022/05/04 11:06:45;;;;;;;6.97;3.60;;;;;;;;;;6164272;28;20262;-68
2022/05/04 11:10:06;;;;;;;5.73;3.13;;;;;;;;;;6164471;28;20566;-69
2022/05/04 11:13:28;;;;;;;5.47;3.37;;;;;;;;;;6159357;28;20223;-69
2022/05/04 11:16:48;;;;;;;8.17;4.20;;;;;;;;;;6164017;28;20299;-68
2022/05/04 11:20:13;;;;;;;9.23;3.97;;;;;;;;;;6163283;28;20227;-69
2022/05/04 11:23:33;;;;;;;5.33;3.37;;;;;;;;;;6159847;28;20533;-70
2022/05/04 11:26:55;;;;;;;7.57;3.67;;;;;;;;;;6162890;28;20234;-69
2022/05/04 11:30:18;;;;;;;6.43;3.57;;;;;;;;;;6163657;28;20235;-69
2022/05/04 11:33:40;;;;;;;10.77;5.10;;;;;;;;;;6160412;28;20514;-69
2022/05/04 11:37:03;;;;;;;8.03;3.50;;;;;;;;;;6160674;28;20242;-68
2022/05/04 11:40:24;;;;;;;7.77;3.30;;;;;;;;;;6161325;28;20238;-69
2022/05/04 11:43:44;;;;;;;9.33;3.73;;;;;;;;;;6162313;28;20632;-67
2022/05/04 11:47:08;;;;;;;6.17;3.27;;;;;;;;;;6164239;28;20242;-68
2022/05/04 11:50:30;;;;;;;8.40;3.73;;;;;;;;;;6159437;28;20242;-69
2022/05/04 11:53:50;;;;;;;5.90;2.93;;;;;;;;;;6162340;28;20326;-68
2022/05/04 11:57:11;;;;;;;3.13;2.30;;;;;;;;;;6161942;28;20242;-68
2022/05/04 12:00:32;;;;;;;4.37;2.37;;;;;;;;;;6162797;28;20230;-69
2022/05/04 12:03:53;;;;;;;7.78;2.40;;;;;;;;;;6162012;28;20238;-68
2022/05/04 12:07:14;;;;;;;5.28;2.80;;;;;;;;;;6161680;28;20230;-70
2022/05/04 12:10:35;;;;;;;7.78;2.35;;;;;;;;;;6161164;28;20556;-68
2022/05/04 12:13:57;;;;;;;5.05;2.22;;;;;;;;;;6158141;28;20250;-68
2022/05/04 12:17:17;;;;;;;3.60;2.33;;;;;;;;;;6163020;28;20234;-68
2022/05/04 12:20:39;;;;;;;5.65;2.42;;;;;;;;;;6150494;28;20238;-68
2022/05/04 12:24:00;;;;;;;4.93;2.10;;;;;;;;;;6162704;28;20330;-68
2022/05/04 12:27:21;;;;;;;4.80;2.90;;;;;;;;;;6162810;28;20230;-67
2022/05/04 12:34:20;;;;;;;3.42;3.13;;;;;;;;;;6161406;28;20624;-69
2022/05/04 12:37:42;;;;;;;4.45;3.05;;;;;;;;;;6159482;28;20249;-67
2022/05/04 12:41:04;;;;;;;4.85;3.30;;;;;;;;;;6161100;28;20561;-68
2022/05/04 12:44:24;;;;;;;8.55;3.72;;;;;;;;;;6164048;28;21021;-68
2022/05/04 12:47:45;;;;;;;3.85;2.78;;;;;;;;;;6157939;28;20776;-68
2022/05/04 12:51:07;;;;;;;6.43;4.57;;;;;;;;;;6156595;28;20230;-68
2022/05/04 12:54:29;;;;;;;3.17;2.40;;;;;;;;;;6153716;28;20238;-68
2022/05/04 12:57:49;;;;;;;5.53;3.40;;;;;;;;;;6166016;28;20234;-68
2022/05/04 13:01:10;;;;;;;5.75;3.80;;;;;;;;;;6164941;28;20235;-68
2022/05/04 13:04:31;;;;;;;5.07;2.72;;;;;;;;;;6165391;28;20238;-69
2022/05/04 13:07:52;;;;;;;4.80;2.85;;;;;;;;;;6162504;28;20231;-69
2022/05/04 13:11:14;;;;;;;5.47;2.78;;;;;;;;;;6164960;28;20226;-69
2022/05/04 13:14:34;;;;;;;4.68;3.70;;;;;;;;;;6166080;28;20230;-68
2022/05/04 13:17:55;;;;;;;5.80;3.70;;;;;;;;;;6165024;28;20616;-68
2022/05/04 13:21:18;;;;;;;5.00;3.20;;;;;;;;;;6165126;28;20230;-68
2022/05/04 13:24:38;;;;;;;5.90;3.65;;;;;;;;;;6165286;28;20238;-67
2022/05/04 13:28:00;;;;;;;3.75;2.65;;;;;;;;;;6164301;28;20238;-68
2022/05/04 13:31:20;;;;;;;5.97;3.13;;;;;;;;;;6167257;28;20246;-68
2022/05/04 13:34:41;;;;;;;7.38;4.07;;;;;;;;;;6164781;28;20844;-69
2022/05/04 13:38:01;;;;;;;3.75;3.38;;;;;;;;;;6163152;28;20231;-68
2022/05/04 13:41:22;;;;;;;6.72;4.13;;;;;;;;;;6166208;28;20718;-68
2022/05/04 13:44:44;;;;;;;5.07;3.22;;;;;;;;;;6165705;28;20222;-68
2022/05/04 13:48:05;;;;;;;5.13;3.10;;;;;;;;;;6164267;28;20234;-69
2022/05/04 13:55:04;;;;;;;4.95;3.55;;;;;;;;;;6163993;28;20251;-68
2022/05/04 13:58:26;;;;;;;4.57;3.40;;;;;;;;;;6165577;28;20512;-67
2022/05/04 14:01:48;;;;;;;4.35;2.83;;;;;;;;;;6165148;28;20239;-69
2022/05/04 14:05:08;;;;;;;6.25;3.28;;;;;;;;;;6165153;28;20772;-69
2022/05/04 14:08:30;;;;;;;5.90;3.70;;;;;;;;;;6160034;28;20227;-69
2022/05/04 14:11:51;;;;;;;5.38;2.95;;;;;;;;;;6161106;28;20589;-70
2022/05/04 14:15:11;;;;;;;6.38;3.10;;;;;;;;;;6167570;28;20231;-71
2022/05/04 14:18:33;;;;;;;5.57;3.17;;;;;;;;;;6162165;28;20219;-68
2022/05/04 14:21:54;;;;;;;6.10;3.50;;;;;;;;;;6160356;28;20242;-70
2022/05/04 14:25:14;;;;;;;7.43;3.95;;;;;;;;;;6161951;28;20234;-69
2022/05/04 14:28:35;;;;;;;3.45;2.75;;;;;;;;;;6162115;28;20833;-67
2022/05/04 14:31:55;;;;;;;6.97;3.20;;;;;;;;;;6163107;28;20243;-69
2022/05/04 14:35:17;;;;;;;4.22;3.20;;;;;;;;;;6162813;28;20771;-68
2022/05/04 14:38:38;;;;;;;7.18;3.42;;;;;;;;;;6157700;28;20231;-68
2022/05/04 14:41:58;;;;;;;6.22;3.75;;;;;;;;;;6161048;28;20226;-68
2022/05/04 14:45:19;;;;;;;3.55;2.60;;;;;;;;;;6164761;28;20884;-67
2022/05/04 14:48:39;;;;;;;5.80;3.20;;;;;;;;;;6162859;28;20244;-67
2022/05/04 14:52:01;;;;;;;5.68;3.55;;;;;;;;;;6164362;28;20238;-67
2022/05/04 14:55:22;;;;;;;6.35;3.17;;;;;;;;;;6162120;28;20230;-68
2022/05/04 14:58:42;;;;;;;4.55;2.90;;;;;;;;;;6157263;28;20235;-68
2022/05/04 15:02:03;;;;;;;4.65;3.00;;;;;;;;;;6161151;28;20250;-67
2022/05/04 15:05:23;;;;;;;7.18;2.85;;;;;;;;;;6163649;28;20691;-67
2022/05/04 15:08:45;;;;;;;7.65;3.45;;;;;;;;;;6162688;28;20484;-68
2022/05/04 15:12:06;;;;;;;4.22;2.50;;;;;;;;;;6158635;28;20563;-68
2022/05/04 15:15:27;;;;;;;8.63;3.78;;;;;;;;;;6163611;28;20235;-68
2022/05/04 15:18:47;;;;;;;6.47;3.13;;;;;;;;;;6163195;28;20243;-67
2022/05/04 15:22:08;;;;;;;5.78;2.97;;;;;;;;;;6158451;28;20620;-67
2022/05/04 15:25:30;;;;;;;8.05;3.08;;;;;;;;;;6159236;28;20321;-68
2022/05/04 15:28:50;;;;;;;4.47;2.42;;;;;;;;;;6150405;28;20242;-68
2022/05/04 15:32:11;;;;;;;5.68;3.08;;;;;;;;;;6155473;28;20306;-68
2022/05/04 15:35:32;;;;;;;5.40;3.25;;;;;;;;;;6144817;28;20226;-67
2022/05/04 15:38:53;;;;;;;5.07;2.75;;;;;;;;;;6159004;28;20239;-68
2022/05/04 15:42:16;;;;;;;9.80;4.18;;;;;;;;;;6153580;28;23672;-68
2022/05/04 15:45:37;;;;;;;3.80;2.38;;;;;;;;;;6152862;28;20671;-68
2022/05/04 15:48:58;;;;;;;4.30;2.40;;;;;;;;;;6153330;28;20250;-68
2022/05/04 15:52:18;;;;;;;5.88;2.50;;;;;;;;;;6158027;28;20234;-68
2022/05/04 15:55:39;;;;;;;5.88;2.63;;;;;;;;;;6151350;28;20227;-68
2022/05/04 15:59:01;;;;;;;3.65;1.98;;;;;;;;;;6153659;28;20317;-68
2022/05/04 16:03:57;;;;;;;7.90;2.17;;;;;;;;;;6144596;28;20243;-68
2022/05/04 16:06:02;;;;;;;6.20;2.83;;;;;;;;;;6140329;28;20238;-68
2022/05/04 16:09:23;;;;;;;7.05;2.60;;;;;;;;;;6158726;28;20608;-68
2022/05/04 16:12:46;;;;;;;8.85;3.22;;;;;;;;;;6150478;28;20313;-67
2022/05/04 16:16:08;;;;;;;3.90;2.33;;;;;;;;;;6150550;28;20274;-68
2022/05/04 16:23:07;;;;;;;6.22;2.70;;;;;;;;;;6155086;28;20230;-67
2022/05/04 16:26:28;;;;;;;2.83;2.20;;;;;;;;;;6153118;28;20234;-68
2022/05/04 16:29:48;;;;;;;5.10;2.45;;;;;;;;;;6139441;28;20230;-68
2022/05/04 16:33:10;;;;;;;5.00;2.95;;;;;;;;;;6152834;28;20239;-68
2022/05/04 16:36:31;;;;;;;8.88;7.95;;;;;;;;;;6154724;28;20317;-69
2022/05/04 16:39:51;;;;;;;12.70;11.05;;;;;;;;;;6155770;28;21591;-68
2022/05/04 16:43:12;;;;;;;9.75;7.10;;;;;;;;;;6150021;28;20627;-68
2022/05/04 16:46:33;;;;;;;11.05;8.00;;;;;;;;;;6155327;28;20234;-68
2022/05/04 16:49:55;;;;;;;11.13;10.02;;;;;;;;;;6150082;28;20512;-68
2022/05/04 16:53:15;;;;;;;8.07;4.22;;;;;;;;;;6149773;28;20226;-68
2022/05/04 16:56:36;;;;;;;10.75;4.78;;;;;;;;;;6136190;28;20230;-69
2022/05/04 16:59:56;;;;;;;8.35;4.05;;;;;;;;;;6157358;28;20231;-69
2022/05/04 17:03:19;;;;;;;12.20;4.88;;;;;;;;;;6147380;28;20230;-67
2022/05/04 17:06:41;;;;;;;6.55;4.78;;;;;;;;;;6143993;28;20246;-68
2022/05/04 17:10:03;;;;;;;3.25;2.33;;;;;;;;;;6136021;28;20262;-69
2022/05/04 17:13:25;;;;;;;4.70;2.72;;;;;;;;;;6153474;28;20254;-67
2022/05/04 17:16:45;;;;;;;19.70;17.75;;;;;;;;;;6146446;28;20534;-68
2022/05/04 17:20:09;;;;;;;5.18;4.53;;;;;;;;;;6157533;28;20647;-69
2022/05/04 17:23:31;;;;;;;5.63;4.00;;;;;;;;;;6155066;28;20665;-69
2022/05/04 17:26:51;;;;;;;9.80;8.82;;;;;;;;;;6144146;28;20815;-68
2022/05/04 17:30:12;;;;;;;8.13;4.10;;;;;;;;;;6152681;28;20521;-70
2022/05/04 17:37:11;;;;;;;10.45;2.72;;;;;;;;;;6156658;28;20310;-71
2022/05/04 17:40:33;;;;;;;4.40;2.25;;;;;;;;;;6149059;28;20231;-70
2022/05/04 17:43:54;;;;;;;3.70;2.22;;;;;;;;;;6153425;28;20309;-71
2022/05/04 17:47:15;;;;;;;6.32;2.55;;;;;;;;;;6155639;28;20239;-68
2022/05/04 17:50:36;;;;;;;9.70;7.13;;;;;;;;;;6152980;28;20586;-70
2022/05/04 17:53:56;;;;;;;4.82;3.38;;;;;;;;;;6158614;28;20226;-70
2022/05/04 17:57:18;;;;;;;18.03;12.43;;;;;;;;;;6152235;28;20723;-70
2022/05/04 18:00:39;;;;;;;5.70;3.83;;;;;;;;;;6153000;28;20231;-69
2022/05/04 18:03:58;;;;;;;16.87;14.87;;;;;;;;;;6153616;28;20246;-69
2022/05/04 18:07:20;;;;;;;12.27;10.20;;;;;;;;;;6159775;28;20227;-70
2022/05/04 18:10:41;;;;;;;8.63;6.43;;;;;;;;;;6154978;28;20237;-70
2022/05/04 18:14:02;;;;;;;7.30;6.07;;;;;;;;;;6157692;28;20514;-70
2022/05/04 18:17:23;;;;;;;8.33;3.13;;;;;;;;;;6151303;28;20238;-69
2022/05/04 18:20:48;;;;;;;16.83;3.33;;;;;;;;;;6144950;28;20309;-69
2022/05/04 18:24:09;;;;;;;2.63;2.43;;;;;;;;;;6146189;28;20230;-70
2022/05/04 18:27:29;;;;;;;16.77;14.63;;;;;;;;;;6156437;28;20242;-68
2022/05/04 18:30:51;;;;;;;9.93;6.17;;;;;;;;;;6155424;28;20238;-69
2022/05/04 18:34:13;;;;;;;13.17;8.50;;;;;;;;;;6153376;28;21141;-69
2022/05/04 18:37:35;;;;;;;6.30;5.57;;;;;;;;;;6160238;28;21100;-69
2022/05/04 18:40:56;;;;;;;11.73;5.50;;;;;;;;;;6154479;28;20235;-67
2022/05/04 18:44:17;;;;;;;13.53;11.90;;;;;;;;;;6152240;28;20234;-69
2022/05/04 18:47:39;;;;;;;6.33;4.77;;;;;;;;;;6153732;28;20522;-69
2022/05/04 18:50:59;;;;;;;12.90;8.53;;;;;;;;;;6151263;28;20242;-69
2022/05/04 18:54:20;;;;;;;5.47;3.23;;;;;;;;;;6156009;28;20253;-69
2022/05/04 18:57:41;;;;;;;17.27;12.00;;;;;;;;;;6143997;28;20219;-69
2022/05/04 19:01:01;;;;;;;10.20;6.10;;;;;;;;;;6152187;28;20789;-68
2022/05/04 19:04:23;;;;;;;24.53;21.33;;;;;;;;;;6154755;28;20696;-68
2022/05/04 19:07:44;;;;;;;16.83;14.83;;;;;;;;;;6152685;28;20239;-69
2022/05/04 19:11:09;;;;;;;28.07;22.37;;;;;;;;;;6152139;28;20659;-69
2022/05/04 19:14:30;;;;;;;10.23;6.53;;;;;;;;;;6150577;28;20250;-69
2022/05/04 19:17:50;;;;;;;6.57;3.00;;;;;;;;;;6131194;28;21464;-71
2022/05/04 19:21:12;;;;;;;6.70;2.13;;;;;;;;;;6146194;28;20231;-70
2022/05/04 19:24:33;;;;;;;7.47;3.30;;;;;;;;;;6148712;28;20557;-71
2022/05/04 19:27:53;;;;;;;13.60;10.23;;;;;;;;;;6155608;28;20518;-71
2022/05/04 19:31:15;;;;;;;30.93;23.90;;;;;;;;;;6143728;28;20301;-71
2022/05/04 19:34:36;;;;;;;23.40;19.17;;;;;;;;;;6153107;28;20612;-77
2022/05/04 19:37:58;;;;;;;22.80;20.40;;;;;;;;;;6151682;28;20227;-72
2022/05/04 19:41:19;;;;;;;4.83;3.47;;;;;;;;;;6152110;28;20238;-70
2022/05/04 19:44:41;;;;;;;4.13;2.67;;;;;;;;;;6156475;28;20230;-70
2022/05/04 19:48:02;;;;;;;5.73;2.90;;;;;;;;;;6151082;28;21596;-71
2022/05/04 19:51:23;;;;;;;5.63;3.67;;;;;;;;;;6145207;28;20235;-71
2022/05/04 19:54:45;;;;;;;18.90;14.93;;;;;;;;;;6147899;28;20262;-72
2022/05/04 19:58:06;;;;;;;31.20;25.97;;;;;;;;;;6138881;28;20620;-70
2022/05/04 20:01:29;;;;;;;26.83;19.53;;;;;;;;;;6141234;28;20234;-72
2022/05/04 20:04:49;;;;;;;29.90;21.87;;;;;;;;;;6139442;28;20617;-71
2022/05/04 20:08:10;;;;;;;29.13;25.80;;;;;;;;;;6142441;28;20230;-71
2022/05/04 20:11:32;;;;;;;19.30;15.63;;;;;;;;;;6143346;28;20215;-71
2022/05/04 20:14:53;;;;;;;8.37;5.60;;;;;;;;;;6143083;28;20231;-72
2022/05/04 20:18:13;;;;;;;27.83;23.40;;;;;;;;;;6144686;28;20235;-71
2022/05/04 20:21:34;;;;;;;19.23;15.50;;;;;;;;;;6149735;28;20355;-72
2022/05/04 20:24:55;;;;;;;11.30;7.23;;;;;;;;;;6144794;28;20239;-72
2022/05/04 20:28:17;;;;;;;5.40;3.63;;;;;;;;;;6151566;28;20226;-72
2022/05/04 20:31:38;;;;;;;3.80;2.73;;;;;;;;;;6150932;28;20235;-72
2022/05/04 20:34:58;;;;;;;7.37;2.87;;;;;;;;;;6151201;28;20246;-73
2022/05/04 20:41:57;;;;;;;4.67;2.77;;;;;;;;;;6153723;28;20249;-71
2022/05/04 20:45:19;;;;;;;7.13;2.60;;;;;;;;;;6151506;28;20230;-71
2022/05/04 20:48:39;;;;;;;4.53;3.37;;;;;;;;;;6156487;28;20247;-71
2022/05/04 20:52:13;;;;;;;6.53;3.10;;;;;;;;;;6144600;28;20262;-72
2022/05/04 20:55:35;;;;;;;3.40;2.70;;;;;;;;;;6150012;28;20234;-71
2022/05/04 20:58:56;;;;;;;7.43;3.33;;;;;;;;;;6147537;28;20616;-73
2022/05/04 21:02:17;;;;;;;6.97;3.37;;;;;;;;;;6130195;28;20579;-70
2022/05/04 21:05:40;;;;;;;3.77;2.40;;;;;;;;;;6141545;28;21209;-68
2022/05/04 21:09:01;;;;;;;4.10;2.87;;;;;;;;;;6136381;28;20258;-70
2022/05/04 21:12:21;;;;;;;7.83;3.60;;;;;;;;;;6128484;28;20333;-70